sensor_id;sensor_type;location;lat;lon;timestamp;temperature;humidity
37956;DHT22;23776;51.592;7.180;2023-06-24T00:00:05;19.00;1.00
37956;DHT22;23776;51.592;7.180;2023-06-24T00:02:33;18.80;99.90
37956;DHT22;23776;51.592;7.180;2023-06-24T00:05:01;18.80;99.90
37956;DHT22;23776;51.592;7.180;2023-06-24T00:07:27;18.80;1.00
37956;DHT22;23776;51.592;7.180;2023-06-24T00:09:52;18.80;1.00
37956;DHT22;23776;51.592;7.180;2023-06-24T00:12:18;18.80;1.00
37956;DHT22;23776;51.592;7.180;2023-06-24T00:14:47;18.70;99.90
37956;DHT22;23776;51.592;7.180;2023-06-24T00:17:14;18.70;99.90
37956;DHT22;23776;51.592;7.180;2023-06-24T00:19:42;18.60;1.00
37956;DHT22;23776;51.592;7.180;2023-06-24T00:22:09;18.60;99.90
37956;DHT22;23776;51.592;7.180;2023-06-24T00:24:35;18.40;1.00
37956;DHT22;23776;51.592;7.180;2023-06-24T00:27:00;18.40;1.00
37956;DHT22;23776;51.592;7.180;2023-06-24T00:29:26;18.50;1.00
37956;DHT22;23776;51.592;7.180;2023-06-24T00:31:51;18.50;1.00
37956;DHT22;23776;51.592;7.180;2023-06-24T00:34:17;18.50;1.00
37956;DHT22;23776;51.592;7.180;2023-06-24T00:36:45;18.50;1.00
37956;DHT22;23776;51.592;7.180;2023-06-24T00:39:12;18.40;1.00
37956;DHT22;23776;51.592;7.180;2023-06-24T00:41:38;18.40;1.00
37956;DHT22;23776;51.592;7.180;2023-06-24T00:44:03;18.40;1.00
37956;DHT22;23776;51.592;7.180;2023-06-24T00:46:29;18.40;1.00
37956;DHT22;23776;51.592;7.180;2023-06-24T00:48:57;18.30;1.00
37956;DHT22;23776;51.592;7.180;2023-06-24T00:51:23;18.30;1.00
37956;DHT22;23776;51.592;7.180;2023-06-24T00:53:58;18.30;1.00
37956;DHT22;23776;51.592;7.180;2023-06-24T00:56:28;18.20;1.00
37956;DHT22;23776;51.592;7.180;2023-06-24T00:58:57;18.20;1.00
37956;DHT22;23776;51.592;7.180;2023-06-24T01:01:23;18.20;1.00
37956;DHT22;23776;51.592;7.180;2023-06-24T01:03:49;18.30;1.00
37956;DHT22;23776;51.592;7.180;2023-06-24T01:06:15;18.20;1.00
37956;DHT22;23776;51.592;7.180;2023-06-24T01:08:40;18.20;1.00
37956;DHT22;23776;51.592;7.180;2023-06-24T01:11:06;18.20;1.00
37956;DHT22;23776;51.592;7.180;2023-06-24T01:13:32;18.20;1.00
37956;DHT22;23776;51.592;7.180;2023-06-24T01:16:01;18.10;1.00
37956;DHT22;23776;51.592;7.180;2023-06-24T01:18:37;18.10;1.00
37956;DHT22;23776;51.592;7.180;2023-06-24T01:26:39;18.00;1.00
37956;DHT22;23776;51.592;7.180;2023-06-24T01:31:58;17.90;1.00
37956;DHT22;23776;51.592;7.180;2023-06-24T01:37:39;17.80;1.00
37956;DHT22;23776;51.592;7.180;2023-06-24T01:42:46;17.80;1.00
37956;DHT22;23776;51.592;7.180;2023-06-24T01:45:15;17.80;1.00
37956;DHT22;23776;51.592;7.180;2023-06-24T01:47:44;17.70;1.00
37956;DHT22;23776;51.592;7.180;2023-06-24T01:50:12;17.70;1.00
37956;DHT22;23776;51.592;7.180;2023-06-24T01:52:42;17.80;1.00
37956;DHT22;23776;51.592;7.180;2023-06-24T01:55:10;17.80;1.00
37956;DHT22;23776;51.592;7.180;2023-06-24T01:57:37;17.70;1.00
37956;DHT22;23776;51.592;7.180;2023-06-24T02:00:06;17.60;1.00
37956;DHT22;23776;51.592;7.180;2023-06-24T02:02:34;17.70;1.00
37956;DHT22;23776;51.592;7.180;2023-06-24T02:05:02;17.70;1.00
37956;DHT22;23776;51.592;7.180;2023-06-24T02:07:28;17.70;1.00
37956;DHT22;23776;51.592;7.180;2023-06-24T02:09:58;17.70;1.00
37956;DHT22;23776;51.592;7.180;2023-06-24T02:12:26;17.60;1.00
37956;DHT22;23776;51.592;7.180;2023-06-24T02:14:52;17.60;1.00
37956;DHT22;23776;51.592;7.180;2023-06-24T02:17:20;17.50;1.00
37956;DHT22;23776;51.592;7.180;2023-06-24T02:19:47;17.40;1.00
37956;DHT22;23776;51.592;7.180;2023-06-24T02:22:14;17.50;1.00
37956;DHT22;23776;51.592;7.180;2023-06-24T02:24:41;17.50;1.00
37956;DHT22;23776;51.592;7.180;2023-06-24T02:27:07;17.50;1.00
37956;DHT22;23776;51.592;7.180;2023-06-24T02:29:36;17.50;1.00
37956;DHT22;23776;51.592;7.180;2023-06-24T02:32:02;17.50;1.00
37956;DHT22;23776;51.592;7.180;2023-06-24T02:34:28;17.40;1.00
37956;DHT22;23776;51.592;7.180;2023-06-24T02:36:54;17.50;1.00
37956;DHT22;23776;51.592;7.180;2023-06-24T02:39:20;17.50;1.00
37956;DHT22;23776;51.592;7.180;2023-06-24T02:41:45;17.40;1.00
37956;DHT22;23776;51.592;7.180;2023-06-24T02:44:13;17.40;1.00
37956;DHT22;23776;51.592;7.180;2023-06-24T02:46:39;17.30;1.00
37956;DHT22;23776;51.592;7.180;2023-06-24T02:49:06;17.40;1.00
37956;DHT22;23776;51.592;7.180;2023-06-24T02:51:33;17.40;1.00
37956;DHT22;23776;51.592;7.180;2023-06-24T02:54:00;17.50;1.00
37956;DHT22;23776;51.592;7.180;2023-06-24T02:56:27;17.50;1.00
37956;DHT22;23776;51.592;7.180;2023-06-24T02:58:53;17.30;1.00
37956;DHT22;23776;51.592;7.180;2023-06-24T03:01:20;17.30;1.00
37956;DHT22;23776;51.592;7.180;2023-06-24T03:03:54;17.30;1.00
37956;DHT22;23776;51.592;7.180;2023-06-24T03:06:20;17.30;1.00
37956;DHT22;23776;51.592;7.180;2023-06-24T03:08:48;17.30;1.00
37956;DHT22;23776;51.592;7.180;2023-06-24T03:11:14;17.30;1.00
37956;DHT22;23776;51.592;7.180;2023-06-24T03:13:40;17.30;1.00
37956;DHT22;23776;51.592;7.180;2023-06-24T03:16:05;16.80;1.00
37956;DHT22;23776;51.592;7.180;2023-06-24T03:20:57;17.30;1.00
37956;DHT22;23776;51.592;7.180;2023-06-24T03:25:49;17.30;1.00
37956;DHT22;23776;51.592;7.180;2023-06-24T03:28:14;17.40;1.00
37956;DHT22;23776;51.592;7.180;2023-06-24T03:30:40;17.40;1.00
37956;DHT22;23776;51.592;7.180;2023-06-24T03:33:05;17.40;1.00
37956;DHT22;23776;51.592;7.180;2023-06-24T03:35:31;17.40;1.00
37956;DHT22;23776;51.592;7.180;2023-06-24T03:37:58;17.30;1.00
37956;DHT22;23776;51.592;7.180;2023-06-24T03:40:23;17.40;1.00
37956;DHT22;23776;51.592;7.180;2023-06-24T03:42:49;17.40;1.00
37956;DHT22;23776;51.592;7.180;2023-06-24T03:45:14;17.40;1.00
37956;DHT22;23776;51.592;7.180;2023-06-24T03:47:40;17.40;1.00
37956;DHT22;23776;51.592;7.180;2023-06-24T03:52:32;17.50;1.00
37956;DHT22;23776;51.592;7.180;2023-06-24T03:57:23;17.50;1.00
37956;DHT22;23776;51.592;7.180;2023-06-24T03:59:49;17.50;1.00
37956;DHT22;23776;51.592;7.180;2023-06-24T04:02:15;17.50;1.00
37956;DHT22;23776;51.592;7.180;2023-06-24T04:04:41;17.60;1.00
37956;DHT22;23776;51.592;7.180;2023-06-24T04:07:06;17.70;1.00
37956;DHT22;23776;51.592;7.180;2023-06-24T04:09:33;17.70;1.00
37956;DHT22;23776;51.592;7.180;2023-06-24T04:11:59;17.80;1.00
37956;DHT22;23776;51.592;7.180;2023-06-24T04:14:25;17.70;1.00
37956;DHT22;23776;51.592;7.180;2023-06-24T04:16:50;17.90;1.00
37956;DHT22;23776;51.592;7.180;2023-06-24T04:19:16;17.90;1.00
37956;DHT22;23776;51.592;7.180;2023-06-24T04:21:42;17.90;1.00
37956;DHT22;23776;51.592;7.180;2023-06-24T04:24:07;18.00;1.00
37956;DHT22;23776;51.592;7.180;2023-06-24T04:26:33;18.00;1.00
37956;DHT22;23776;51.592;7.180;2023-06-24T04:28:58;18.00;1.00
37956;DHT22;23776;51.592;7.180;2023-06-24T04:31:24;18.20;1.00
37956;DHT22;23776;51.592;7.180;2023-06-24T04:33:51;18.20;1.00
37956;DHT22;23776;51.592;7.180;2023-06-24T04:36:16;18.30;1.00
37956;DHT22;23776;51.592;7.180;2023-06-24T04:38:42;18.30;1.00
37956;DHT22;23776;51.592;7.180;2023-06-24T04:41:07;18.40;1.00
37956;DHT22;23776;51.592;7.180;2023-06-24T04:43:33;18.50;1.00
37956;DHT22;23776;51.592;7.180;2023-06-24T04:46:01;18.50;1.00
37956;DHT22;23776;51.592;7.180;2023-06-24T04:48:27;18.70;1.00
37956;DHT22;23776;51.592;7.180;2023-06-24T04:50:52;18.60;1.00
37956;DHT22;23776;51.592;7.180;2023-06-24T04:53:20;18.50;1.00
37956;DHT22;23776;51.592;7.180;2023-06-24T04:55:46;18.70;1.00
37956;DHT22;23776;51.592;7.180;2023-06-24T04:58:11;18.70;1.00
37956;DHT22;23776;51.592;7.180;2023-06-24T05:00:37;18.70;1.00
37956;DHT22;23776;51.592;7.180;2023-06-24T05:05:28;19.00;1.00
37956;DHT22;23776;51.592;7.180;2023-06-24T05:07:54;19.10;1.00
37956;DHT22;23776;51.592;7.180;2023-06-24T05:10:20;19.00;1.00
37956;DHT22;23776;51.592;7.180;2023-06-24T05:12:45;19.10;1.00
37956;DHT22;23776;51.592;7.180;2023-06-24T05:15:11;19.30;99.90
37956;DHT22;23776;51.592;7.180;2023-06-24T05:17:37;19.30;99.90
37956;DHT22;23776;51.592;7.180;2023-06-24T05:20:03;19.40;99.90
37956;DHT22;23776;51.592;7.180;2023-06-24T05:22:28;19.40;99.90
37956;DHT22;23776;51.592;7.180;2023-06-24T05:24:54;19.50;99.90
37956;DHT22;23776;51.592;7.180;2023-06-24T05:27:20;19.50;99.90
37956;DHT22;23776;51.592;7.180;2023-06-24T05:29:46;19.50;99.90
37956;DHT22;23776;51.592;7.180;2023-06-24T05:32:11;19.60;99.90
37956;DHT22;23776;51.592;7.180;2023-06-24T05:34:37;19.60;99.90
37956;DHT22;23776;51.592;7.180;2023-06-24T05:37:03;19.70;1.00
37956;DHT22;23776;51.592;7.180;2023-06-24T05:39:29;19.70;1.00
37956;DHT22;23776;51.592;7.180;2023-06-24T05:41:55;19.90;99.90
37956;DHT22;23776;51.592;7.180;2023-06-24T05:44:20;19.90;99.90
37956;DHT22;23776;51.592;7.180;2023-06-24T05:46:46;19.90;94.80
37956;DHT22;23776;51.592;7.180;2023-06-24T05:49:13;19.90;32.50
37956;DHT22;23776;51.592;7.180;2023-06-24T05:51:38;19.90;8.60
37956;DHT22;23776;51.592;7.180;2023-06-24T05:54:04;20.00;1.00
37956;DHT22;23776;51.592;7.180;2023-06-24T05:56:29;20.10;1.00
37956;DHT22;23776;51.592;7.180;2023-06-24T05:58:55;20.20;1.00
37956;DHT22;23776;51.592;7.180;2023-06-24T06:01:21;20.40;76.50
37956;DHT22;23776;51.592;7.180;2023-06-24T06:03:47;20.40;1.00
37956;DHT22;23776;51.592;7.180;2023-06-24T06:06:12;20.50;1.00
37956;DHT22;23776;51.592;7.180;2023-06-24T06:08:38;20.50;1.00
37956;DHT22;23776;51.592;7.180;2023-06-24T06:11:04;20.60;1.00
37956;DHT22;23776;51.592;7.180;2023-06-24T06:13:30;20.70;1.00
37956;DHT22;23776;51.592;7.180;2023-06-24T06:15:56;20.70;99.90
37956;DHT22;23776;51.592;7.180;2023-06-24T06:18:22;20.70;99.90
37956;DHT22;23776;51.592;7.180;2023-06-24T06:20:48;20.80;99.90
37956;DHT22;23776;51.592;7.180;2023-06-24T06:23:14;20.90;1.00
37956;DHT22;23776;51.592;7.180;2023-06-24T06:25:40;21.00;99.90
37956;DHT22;23776;51.592;7.180;2023-06-24T06:28:06;21.10;99.90
37956;DHT22;23776;51.592;7.180;2023-06-24T06:30:31;21.10;93.80
37956;DHT22;23776;51.592;7.180;2023-06-24T06:32:57;21.30;3.60
37956;DHT22;23776;51.592;7.180;2023-06-24T06:35:22;21.60;99.90
37956;DHT22;23776;51.592;7.180;2023-06-24T06:37:48;21.70;73.30
37956;DHT22;23776;51.592;7.180;2023-06-24T06:40:19;21.70;52.50
37956;DHT22;23776;51.592;7.180;2023-06-24T06:42:44;21.80;99.90
37956;DHT22;23776;51.592;7.180;2023-06-24T06:45:10;21.80;1.00
37956;DHT22;23776;51.592;7.180;2023-06-24T06:47:36;21.80;1.00
37956;DHT22;23776;51.592;7.180;2023-06-24T06:50:01;21.90;1.00
37956;DHT22;23776;51.592;7.180;2023-06-24T06:52:27;20.10;99.90
37956;DHT22;23776;51.592;7.180;2023-06-24T06:54:55;21.90;99.90
37956;DHT22;23776;51.592;7.180;2023-06-24T06:57:22;21.90;99.90
37956;DHT22;23776;51.592;7.180;2023-06-24T06:59:48;22.00;1.00
37956;DHT22;23776;51.592;7.180;2023-06-24T07:02:16;22.00;1.00
37956;DHT22;23776;51.592;7.180;2023-06-24T07:04:42;22.00;99.90
37956;DHT22;23776;51.592;7.180;2023-06-24T07:07:08;22.00;14.20
37956;DHT22;23776;51.592;7.180;2023-06-24T07:09:34;22.00;99.90
37956;DHT22;23776;51.592;7.180;2023-06-24T07:12:00;22.00;99.90
37956;DHT22;23776;51.592;7.180;2023-06-24T07:14:25;22.10;1.00
37956;DHT22;23776;51.592;7.180;2023-06-24T07:16:51;22.10;1.00
37956;DHT22;23776;51.592;7.180;2023-06-24T07:19:17;22.10;41.30
37956;DHT22;23776;51.592;7.180;2023-06-24T07:21:42;22.20;1.00
37956;DHT22;23776;51.592;7.180;2023-06-24T07:24:08;22.30;5.20
37956;DHT22;23776;51.592;7.180;2023-06-24T07:26:34;22.30;1.00
37956;DHT22;23776;51.592;7.180;2023-06-24T07:28:59;22.40;10.00
37956;DHT22;23776;51.592;7.180;2023-06-24T07:31:25;22.50;91.60
37956;DHT22;23776;51.592;7.180;2023-06-24T07:33:51;22.60;5.40
37956;DHT22;23776;51.592;7.180;2023-06-24T07:36:16;22.60;1.00
37956;DHT22;23776;51.592;7.180;2023-06-24T07:38:42;22.60;49.70
37956;DHT22;23776;51.592;7.180;2023-06-24T07:41:08;22.60;99.90
37956;DHT22;23776;51.592;7.180;2023-06-24T07:43:33;22.70;56.80
37956;DHT22;23776;51.592;7.180;2023-06-24T07:45:59;22.90;94.20
37956;DHT22;23776;51.592;7.180;2023-06-24T07:48:24;23.00;71.20
37956;DHT22;23776;51.592;7.180;2023-06-24T07:50:50;23.00;1.00
37956;DHT22;23776;51.592;7.180;2023-06-24T07:53:15;23.10;1.00
37956;DHT22;23776;51.592;7.180;2023-06-24T07:55:41;23.30;74.30
37956;DHT22;23776;51.592;7.180;2023-06-24T07:58:07;23.30;25.00
37956;DHT22;23776;51.592;7.180;2023-06-24T08:00:33;23.40;99.90
37956;DHT22;23776;51.592;7.180;2023-06-24T08:02:59;23.40;99.90
37956;DHT22;23776;51.592;7.180;2023-06-24T08:05:25;23.40;99.90
37956;DHT22;23776;51.592;7.180;2023-06-24T08:07:51;23.40;99.90
37956;DHT22;23776;51.592;7.180;2023-06-24T08:10:17;23.30;99.90
37956;DHT22;23776;51.592;7.180;2023-06-24T08:12:43;23.30;1.00
37956;DHT22;23776;51.592;7.180;2023-06-24T08:15:09;23.20;1.00
37956;DHT22;23776;51.592;7.180;2023-06-24T08:17:35;23.10;1.00
37956;DHT22;23776;51.592;7.180;2023-06-24T08:20:04;23.30;77.00
37956;DHT22;23776;51.592;7.180;2023-06-24T08:22:30;23.40;99.90
37956;DHT22;23776;51.592;7.180;2023-06-24T08:24:56;23.70;99.90
37956;DHT22;23776;51.592;7.180;2023-06-24T08:27:21;23.70;99.90
37956;DHT22;23776;51.592;7.180;2023-06-24T08:29:47;23.80;1.00
37956;DHT22;23776;51.592;7.180;2023-06-24T08:32:13;23.90;90.20
37956;DHT22;23776;51.592;7.180;2023-06-24T08:34:38;23.90;99.90
37956;DHT22;23776;51.592;7.180;2023-06-24T08:37:04;23.90;1.00
37956;DHT22;23776;51.592;7.180;2023-06-24T08:39:30;23.80;29.80
37956;DHT22;23776;51.592;7.180;2023-06-24T08:41:55;23.80;1.00
37956;DHT22;23776;51.592;7.180;2023-06-24T08:44:21;23.80;57.10
37956;DHT22;23776;51.592;7.180;2023-06-24T08:46:47;23.90;99.90
37956;DHT22;23776;51.592;7.180;2023-06-24T08:49:25;23.90;1.00
37956;DHT22;23776;51.592;7.180;2023-06-24T08:52:08;24.00;1.00
37956;DHT22;23776;51.592;7.180;2023-06-24T08:54:38;24.10;99.90
37956;DHT22;23776;51.592;7.180;2023-06-24T08:57:05;24.30;99.90
37956;DHT22;23776;51.592;7.180;2023-06-24T08:59:36;24.40;1.00
37956;DHT22;23776;51.592;7.180;2023-06-24T09:02:03;24.40;1.00
37956;DHT22;23776;51.592;7.180;2023-06-24T09:04:28;24.50;99.90
37956;DHT22;23776;51.592;7.180;2023-06-24T09:06:54;24.60;99.90
37956;DHT22;23776;51.592;7.180;2023-06-24T09:09:21;24.60;99.90
37956;DHT22;23776;51.592;7.180;2023-06-24T09:11:55;24.70;94.30
37956;DHT22;23776;51.592;7.180;2023-06-24T09:14:21;24.70;99.90
37956;DHT22;23776;51.592;7.180;2023-06-24T09:16:59;24.90;14.90
37956;DHT22;23776;51.592;7.180;2023-06-24T09:19:27;24.80;24.90
37956;DHT22;23776;51.592;7.180;2023-06-24T09:22:08;25.00;1.00
37956;DHT22;23776;51.592;7.180;2023-06-24T09:24:35;25.00;1.00
37956;DHT22;23776;51.592;7.180;2023-06-24T09:27:02;25.00;1.00
37956;DHT22;23776;51.592;7.180;2023-06-24T09:29:33;25.10;1.00
37956;DHT22;23776;51.592;7.180;2023-06-24T09:31:58;25.00;99.90
37956;DHT22;23776;51.592;7.180;2023-06-24T09:34:28;25.10;99.90
37956;DHT22;23776;51.592;7.180;2023-06-24T09:36:57;25.00;99.90
37956;DHT22;23776;51.592;7.180;2023-06-24T09:39:24;25.10;99.90
37956;DHT22;23776;51.592;7.180;2023-06-24T09:41:57;25.10;99.90
37956;DHT22;23776;51.592;7.180;2023-06-24T09:44:23;25.20;99.90
37956;DHT22;23776;51.592;7.180;2023-06-24T09:46:49;25.20;99.90
37956;DHT22;23776;51.592;7.180;2023-06-24T09:49:15;25.20;99.90
37956;DHT22;23776;51.592;7.180;2023-06-24T09:51:43;25.30;99.90
37956;DHT22;23776;51.592;7.180;2023-06-24T09:54:10;25.40;99.90
37956;DHT22;23776;51.592;7.180;2023-06-24T09:56:36;25.50;99.90
37956;DHT22;23776;51.592;7.180;2023-06-24T09:59:06;25.60;99.90
37956;DHT22;23776;51.592;7.180;2023-06-24T10:01:34;25.70;99.90
37956;DHT22;23776;51.592;7.180;2023-06-24T10:04:01;25.90;99.90
37956;DHT22;23776;51.592;7.180;2023-06-24T10:06:28;25.90;99.90
37956;DHT22;23776;51.592;7.180;2023-06-24T10:08:54;25.90;99.90
37956;DHT22;23776;51.592;7.180;2023-06-24T10:11:20;26.00;99.90
37956;DHT22;23776;51.592;7.180;2023-06-24T10:13:46;26.00;99.90
37956;DHT22;23776;51.592;7.180;2023-06-24T10:16:12;26.10;99.90
37956;DHT22;23776;51.592;7.180;2023-06-24T10:18:38;26.10;99.90
37956;DHT22;23776;51.592;7.180;2023-06-24T10:21:06;26.20;99.90
37956;DHT22;23776;51.592;7.180;2023-06-24T10:23:35;26.30;99.90
37956;DHT22;23776;51.592;7.180;2023-06-24T10:26:08;26.40;99.90
37956;DHT22;23776;51.592;7.180;2023-06-24T10:31:55;26.60;99.90
37956;DHT22;23776;51.592;7.180;2023-06-24T10:34:31;26.60;99.90
37956;DHT22;23776;51.592;7.180;2023-06-24T10:37:03;26.80;98.70
37956;DHT22;23776;51.592;7.180;2023-06-24T10:39:57;26.80;99.90
37956;DHT22;23776;51.592;7.180;2023-06-24T10:47:38;27.30;90.70
37956;DHT22;23776;51.592;7.180;2023-06-24T10:50:05;27.10;95.40
37956;DHT22;23776;51.592;7.180;2023-06-24T10:52:31;27.30;92.50
37956;DHT22;23776;51.592;7.180;2023-06-24T10:54:57;27.40;68.60
37956;DHT22;23776;51.592;7.180;2023-06-24T10:57:27;27.40;77.80
37956;DHT22;23776;51.592;7.180;2023-06-24T10:59:55;27.40;59.80
37956;DHT22;23776;51.592;7.180;2023-06-24T11:02:23;27.50;68.60
37956;DHT22;23776;51.592;7.180;2023-06-24T11:04:50;27.50;74.50
37956;DHT22;23776;51.592;7.180;2023-06-24T11:07:18;27.50;66.50
37956;DHT22;23776;51.592;7.180;2023-06-24T11:09:52;27.60;75.70
37956;DHT22;23776;51.592;7.180;2023-06-24T11:12:18;27.90;61.50
37956;DHT22;23776;51.592;7.180;2023-06-24T11:14:44;27.90;71.30
37956;DHT22;23776;51.592;7.180;2023-06-24T11:17:10;27.90;53.80
37956;DHT22;23776;51.592;7.180;2023-06-24T11:19:36;27.90;62.00
37956;DHT22;23776;51.592;7.180;2023-06-24T11:22:05;28.00;69.00
37956;DHT22;23776;51.592;7.180;2023-06-24T11:24:32;27.90;58.10
37956;DHT22;23776;51.592;7.180;2023-06-24T11:26:58;27.90;42.40
37956;DHT22;23776;51.592;7.180;2023-06-24T11:29:24;28.00;56.80
37956;DHT22;23776;51.592;7.180;2023-06-24T11:31:50;28.10;46.10
37956;DHT22;23776;51.592;7.180;2023-06-24T11:34:16;28.10;55.00
37956;DHT22;23776;51.592;7.180;2023-06-24T11:36:41;28.30;43.00
37956;DHT22;23776;51.592;7.180;2023-06-24T11:39:07;28.30;51.10
37956;DHT22;23776;51.592;7.180;2023-06-24T11:41:33;28.20;40.70
37956;DHT22;23776;51.592;7.180;2023-06-24T11:43:59;28.30;50.00
37956;DHT22;23776;51.592;7.180;2023-06-24T11:46:28;28.50;39.50
37956;DHT22;23776;51.592;7.180;2023-06-24T11:49:05;28.50;63.80
37956;DHT22;23776;51.592;7.180;2023-06-24T11:51:31;28.70;50.90
37956;DHT22;23776;51.592;7.180;2023-06-24T11:53:59;28.90;45.70
37956;DHT22;23776;51.592;7.180;2023-06-24T11:56:39;29.20;39.00
37956;DHT22;23776;51.592;7.180;2023-06-24T11:59:06;29.40;49.50
37956;DHT22;23776;51.592;7.180;2023-06-24T12:01:32;29.70;45.50
37956;DHT22;23776;51.592;7.180;2023-06-24T12:04:08;29.70;43.50
37956;DHT22;23776;51.592;7.180;2023-06-24T12:06:34;29.50;30.00
37956;DHT22;23776;51.592;7.180;2023-06-24T12:09:00;29.50;34.60
37956;DHT22;23776;51.592;7.180;2023-06-24T12:11:25;29.60;32.30
37956;DHT22;23776;51.592;7.180;2023-06-24T12:13:51;29.70;29.00
37956;DHT22;23776;51.592;7.180;2023-06-24T12:16:16;29.50;19.00
37956;DHT22;23776;51.592;7.180;2023-06-24T12:18:42;29.50;24.70
37956;DHT22;23776;51.592;7.180;2023-06-24T12:21:08;29.20;24.60
37956;DHT22;23776;51.592;7.180;2023-06-24T12:23:33;29.10;17.40
37956;DHT22;23776;51.592;7.180;2023-06-24T12:25:59;29.20;17.50
37956;DHT22;23776;51.592;7.180;2023-06-24T12:28:24;29.30;25.20
37956;DHT22;23776;51.592;7.180;2023-06-24T12:30:50;29.40;23.40
37956;DHT22;23776;51.592;7.180;2023-06-24T12:33:16;29.60;24.90
37956;DHT22;23776;51.592;7.180;2023-06-24T12:35:44;30.20;16.40
37956;DHT22;23776;51.592;7.180;2023-06-24T12:38:09;30.30;22.90
37956;DHT22;23776;51.592;7.180;2023-06-24T12:40:35;30.60;21.70
37956;DHT22;23776;51.592;7.180;2023-06-24T12:43:01;31.10;22.80
37956;DHT22;23776;51.592;7.180;2023-06-24T12:45:26;32.20;12.20
37956;DHT22;23776;51.592;7.180;2023-06-24T12:47:52;32.40;10.30
37956;DHT22;23776;51.592;7.180;2023-06-24T12:50:18;32.40;17.40
37956;DHT22;23776;51.592;7.180;2023-06-24T12:52:43;32.30;16.50
37956;DHT22;23776;51.592;7.180;2023-06-24T12:55:09;31.90;9.50
37956;DHT22;23776;51.592;7.180;2023-06-24T12:57:35;32.00;16.30
37956;DHT22;23776;51.592;7.180;2023-06-24T13:00:01;32.20;14.00
37956;DHT22;23776;51.592;7.180;2023-06-24T13:02:27;32.40;6.40
37956;DHT22;23776;51.592;7.180;2023-06-24T13:04:52;32.40;5.30
37956;DHT22;23776;51.592;7.180;2023-06-24T13:07:18;32.30;4.00
37956;DHT22;23776;51.592;7.180;2023-06-24T13:09:43;31.50;9.50
37956;DHT22;23776;51.592;7.180;2023-06-24T13:12:09;31.50;10.50
37956;DHT22;23776;51.592;7.180;2023-06-24T13:14:35;32.10;10.80
37956;DHT22;23776;51.592;7.180;2023-06-24T13:17:00;32.60;4.50
37956;DHT22;23776;51.592;7.180;2023-06-24T13:19:26;33.20;12.60
37956;DHT22;23776;51.592;7.180;2023-06-24T13:21:51;33.80;12.70
37956;DHT22;23776;51.592;7.180;2023-06-24T13:24:17;34.30;13.30
37956;DHT22;23776;51.592;7.180;2023-06-24T13:26:42;34.80;7.20
37956;DHT22;23776;51.592;7.180;2023-06-24T13:29:08;35.20;13.90
37956;DHT22;23776;51.592;7.180;2023-06-24T13:31:34;35.60;13.80
37956;DHT22;23776;51.592;7.180;2023-06-24T13:33:59;35.70;13.70
37956;DHT22;23776;51.592;7.180;2023-06-24T13:36:33;35.90;6.60
37956;DHT22;23776;51.592;7.180;2023-06-24T13:39:09;35.80;13.40
37956;DHT22;23776;51.592;7.180;2023-06-24T13:41:39;36.60;14.40
37956;DHT22;23776;51.592;7.180;2023-06-24T13:44:05;37.20;13.50
37956;DHT22;23776;51.592;7.180;2023-06-24T13:46:31;37.40;6.40
37956;DHT22;23776;51.592;7.180;2023-06-24T13:48:58;37.70;5.40
37956;DHT22;23776;51.592;7.180;2023-06-24T13:51:24;38.00;13.30
37956;DHT22;23776;51.592;7.180;2023-06-24T13:53:51;38.70;14.40
37956;DHT22;23776;51.592;7.180;2023-06-24T13:56:19;39.60;8.00
37956;DHT22;23776;51.592;7.180;2023-06-24T13:58:45;40.00;15.20
37956;DHT22;23776;51.592;7.180;2023-06-24T14:01:11;40.50;13.60
37956;DHT22;23776;51.592;7.180;2023-06-24T14:03:37;40.20;11.90
37956;DHT22;23776;51.592;7.180;2023-06-24T14:06:03;40.10;3.00
37956;DHT22;23776;51.592;7.180;2023-06-24T14:08:30;40.40;4.00
37956;DHT22;23776;51.592;7.180;2023-06-24T14:10:56;40.40;10.90
37956;DHT22;23776;51.592;7.180;2023-06-24T14:13:23;40.60;9.10
37956;DHT22;23776;51.592;7.180;2023-06-24T14:15:48;41.00;2.00
37956;DHT22;23776;51.592;7.180;2023-06-24T14:18:14;41.20;9.70
37956;DHT22;23776;51.592;7.180;2023-06-24T14:20:41;41.00;8.30
37956;DHT22;23776;51.592;7.180;2023-06-24T14:23:06;41.00;7.50
37956;DHT22;23776;51.592;7.180;2023-06-24T14:25:32;41.40;1.00
37956;DHT22;23776;51.592;7.180;2023-06-24T14:27:58;41.50;8.30
37956;DHT22;23776;51.592;7.180;2023-06-24T14:30:23;41.60;7.50
37956;DHT22;23776;51.592;7.180;2023-06-24T14:32:49;41.60;6.80
37956;DHT22;23776;51.592;7.180;2023-06-24T14:35:14;41.10;1.00
37956;DHT22;23776;51.592;7.180;2023-06-24T14:37:40;41.10;5.40
37956;DHT22;23776;51.592;7.180;2023-06-24T14:40:07;41.30;1.00
37956;DHT22;23776;51.592;7.180;2023-06-24T14:42:33;41.50;5.00
37956;DHT22;23776;51.592;7.180;2023-06-24T14:44:59;41.20;1.00
37956;DHT22;23776;51.592;7.180;2023-06-24T14:47:24;41.20;4.20
37956;DHT22;23776;51.592;7.180;2023-06-24T14:49:50;41.30;5.10
37956;DHT22;23776;51.592;7.180;2023-06-24T14:52:15;41.50;4.60
37956;DHT22;23776;51.592;7.180;2023-06-24T14:54:41;41.60;3.80
37956;DHT22;23776;51.592;7.180;2023-06-24T14:57:07;41.50;1.00
37956;DHT22;23776;51.592;7.180;2023-06-24T14:59:32;41.70;3.70
37956;DHT22;23776;51.592;7.180;2023-06-24T15:01:58;41.20;2.00
37956;DHT22;23776;51.592;7.180;2023-06-24T15:04:23;41.10;2.60
37956;DHT22;23776;51.592;7.180;2023-06-24T15:06:49;40.90;1.00
37956;DHT22;23776;51.592;7.180;2023-06-24T15:09:14;40.80;2.70
37956;DHT22;23776;51.592;7.180;2023-06-24T15:11:40;40.90;2.30
37956;DHT22;23776;51.592;7.180;2023-06-24T15:14:06;40.90;1.20
37956;DHT22;23776;51.592;7.180;2023-06-24T15:16:31;40.60;1.00
37956;DHT22;23776;51.592;7.180;2023-06-24T15:18:57;40.60;1.10
37956;DHT22;23776;51.592;7.180;2023-06-24T15:21:22;40.70;1.00
37956;DHT22;23776;51.592;7.180;2023-06-24T15:23:51;40.40;1.00
37956;DHT22;23776;51.592;7.180;2023-06-24T15:26:16;40.50;1.00
37956;DHT22;23776;51.592;7.180;2023-06-24T15:28:42;40.50;1.00
37956;DHT22;23776;51.592;7.180;2023-06-24T15:31:07;40.30;1.00
37956;DHT22;23776;51.592;7.180;2023-06-24T15:33:33;40.30;1.00
37956;DHT22;23776;51.592;7.180;2023-06-24T15:35:58;40.40;1.00
37956;DHT22;23776;51.592;7.180;2023-06-24T15:38:25;40.60;1.00
37956;DHT22;23776;51.592;7.180;2023-06-24T15:40:51;40.90;1.00
37956;DHT22;23776;51.592;7.180;2023-06-24T15:43:16;40.70;1.00
37956;DHT22;23776;51.592;7.180;2023-06-24T15:45:42;41.40;1.00
37956;DHT22;23776;51.592;7.180;2023-06-24T15:48:08;41.60;1.00
37956;DHT22;23776;51.592;7.180;2023-06-24T15:50:33;42.00;1.00
37956;DHT22;23776;51.592;7.180;2023-06-24T15:52:59;42.20;1.00
37956;DHT22;23776;51.592;7.180;2023-06-24T15:55:24;42.30;1.00
37956;DHT22;23776;51.592;7.180;2023-06-24T15:57:50;42.40;1.00
37956;DHT22;23776;51.592;7.180;2023-06-24T16:00:16;42.80;1.00
37956;DHT22;23776;51.592;7.180;2023-06-24T16:02:41;43.10;1.00
37956;DHT22;23776;51.592;7.180;2023-06-24T16:05:07;43.10;1.00
37956;DHT22;23776;51.592;7.180;2023-06-24T16:07:34;43.20;1.00
37956;DHT22;23776;51.592;7.180;2023-06-24T16:10:00;43.10;1.00